createdAt,value
2022-07-28T00:01:24.128Z,1.73
2022-07-28T00:03:50.708Z,1.95
2022-07-28T00:06:17.356Z,1.75
2022-07-28T00:08:43.866Z,2.25
2022-07-28T00:11:10.404Z,5.30
2022-07-28T00:13:37.068Z,2.70
2022-07-28T00:16:03.770Z,2.70
2022-07-28T00:18:30.342Z,3.47
2022-07-28T00:20:58.156Z,3.30
2022-07-28T00:23:35.895Z,1.75
2022-07-28T00:26:06.538Z,2.17
2022-07-28T00:28:33.059Z,2.45
2022-07-28T00:31:05.057Z,2.22
2022-07-28T00:33:35.961Z,1.95
2022-07-28T00:36:02.483Z,1.73
2022-07-28T00:38:29.049Z,1.95
2022-07-28T00:41:13.852Z,1.90
2022-07-28T00:43:44.978Z,2.00
2022-07-28T00:46:12.470Z,1.98
2022-07-28T00:48:39.729Z,2.15
2022-07-28T00:51:07.979Z,2.35
2022-07-28T00:53:34.632Z,1.40
2022-07-28T00:56:05.452Z,1.63
2022-07-28T00:58:33.604Z,2.10
2022-07-28T01:01:00.128Z,3.28
2022-07-28T01:03:27.033Z,2.08
2022-07-28T01:06:12.465Z,2.80
2022-07-28T01:08:57.792Z,2.00
2022-07-28T01:11:32.482Z,4.93
2022-07-28T01:14:24.063Z,2.67
2022-07-28T01:16:56.646Z,3.70
2022-07-28T01:19:35.415Z,1.85
2022-07-28T01:22:03.390Z,3.97
2022-07-28T01:24:29.878Z,2.00
2022-07-28T01:27:11.086Z,3.53
2022-07-28T01:29:40.608Z,3.97
2022-07-28T01:32:10.789Z,2.35
2022-07-28T01:34:41.122Z,3.50
2022-07-28T01:37:10.529Z,2.38
2022-07-28T01:39:37.888Z,1.73
2022-07-28T01:42:06.414Z,1.60
2022-07-28T01:44:35.187Z,2.42
2022-07-28T01:47:05.186Z,5.70
2022-07-28T01:49:32.300Z,2.60
2022-07-28T01:51:59.073Z,2.97
2022-07-28T01:54:28.576Z,3.63
2022-07-28T01:56:56.457Z,4.30
2022-07-28T01:59:24.875Z,2.05
2022-07-28T02:01:52.416Z,1.80
2022-07-28T02:04:20.270Z,2.78
2022-07-28T02:06:47.897Z,2.85
2022-07-28T02:09:14.516Z,2.55
2022-07-28T02:11:41.658Z,3.15
2022-07-28T02:14:13.958Z,5.32
2022-07-28T02:17:01.712Z,2.10
2022-07-28T02:19:29.717Z,3.47
2022-07-28T02:21:56.612Z,4.28
2022-07-28T02:24:26.637Z,2.42
2022-07-28T02:27:01.012Z,2.05
2022-07-28T02:29:49.627Z,2.33
2022-07-28T02:32:29.099Z,3.95
2022-07-28T02:34:58.491Z,4.00
2022-07-28T02:37:26.085Z,2.58
2022-07-28T02:39:58.751Z,2.88
2022-07-28T02:42:28.724Z,3.13
2022-07-28T02:44:59.654Z,2.80
2022-07-28T02:47:28.262Z,2.63
2022-07-28T02:49:55.797Z,3.83
2022-07-28T02:52:26.706Z,3.47
2022-07-28T02:54:53.897Z,2.47
2022-07-28T02:57:21.599Z,2.47
2022-07-28T02:59:49.296Z,2.80
2022-07-28T03:02:18.674Z,3.13
2022-07-28T03:04:58.828Z,3.10
2022-07-28T03:07:26.603Z,3.17
2022-07-28T03:09:53.109Z,3.58
2022-07-28T03:12:19.822Z,2.30
2022-07-28T03:14:46.537Z,4.65
2022-07-28T03:17:13.319Z,3.25
2022-07-28T03:19:39.985Z,2.85
2022-07-28T03:22:07.016Z,4.22
2022-07-28T03:24:38.323Z,2.67
2022-07-28T03:27:10.182Z,3.60
2022-07-28T03:29:37.208Z,4.40
2022-07-28T03:32:03.931Z,4.18
2022-07-28T03:34:30.743Z,3.40
2022-07-28T03:37:02.056Z,3.17
2022-07-28T03:39:32.652Z,4.18
2022-07-28T03:41:59.892Z,3.72
2022-07-28T03:44:28.921Z,3.90
2022-07-28T03:46:56.068Z,6.43
2022-07-28T03:49:22.706Z,2.55
2022-07-28T03:51:49.429Z,2.90
2022-07-28T03:54:16.594Z,2.85
2022-07-28T03:56:43.331Z,3.90
2022-07-28T03:59:11.380Z,3.78
2022-07-28T04:01:38.518Z,4.20
2022-07-28T04:04:05.507Z,4.03
2022-07-28T04:06:32.137Z,2.80
2022-07-28T04:08:58.720Z,3.05
2022-07-28T04:11:25.288Z,2.30
2022-07-28T04:13:51.836Z,3.55
2022-07-28T04:16:18.434Z,2.05
2022-07-28T04:18:44.993Z,3.22
2022-07-28T04:21:11.563Z,3.88
2022-07-28T04:23:38.243Z,5.05
2022-07-28T04:26:04.839Z,2.83
2022-07-28T04:28:31.452Z,2.15
2022-07-28T04:30:58.116Z,3.60
2022-07-28T04:33:25.053Z,2.60
2022-07-28T04:35:52.871Z,2.55
2022-07-28T04:38:20.415Z,2.80
2022-07-28T04:40:50.184Z,1.88
2022-07-28T04:43:16.759Z,2.70
2022-07-28T04:45:52.951Z,3.20
2022-07-28T04:48:20.194Z,3.15
2022-07-28T04:50:46.862Z,2.63
2022-07-28T04:53:13.714Z,3.00
2022-07-28T04:55:40.404Z,2.47
2022-07-28T04:58:07.149Z,2.70
2022-07-28T05:00:35.928Z,5.18
2022-07-28T05:03:03.785Z,5.50
2022-07-28T05:05:30.385Z,2.80
2022-07-28T05:07:56.978Z,2.97
2022-07-28T05:10:23.538Z,3.20
2022-07-28T05:12:50.668Z,4.15
2022-07-28T05:15:17.223Z,4.43
2022-07-28T05:17:43.753Z,4.60
2022-07-28T05:20:10.683Z,2.95
2022-07-28T05:22:45.023Z,2.92
2022-07-28T05:25:18.592Z,3.50
2022-07-28T05:27:45.892Z,5.35
2022-07-28T05:30:12.682Z,2.10
2022-07-28T05:32:39.296Z,5.82
2022-07-28T05:35:06.095Z,4.63
2022-07-28T05:37:33.862Z,5.07
2022-07-28T05:40:00.536Z,3.30
2022-07-28T05:42:28.541Z,2.90
2022-07-28T05:44:55.063Z,2.75
2022-07-28T05:47:21.616Z,5.07
2022-07-28T05:49:48.115Z,3.13
2022-07-28T05:52:15.647Z,2.33
2022-07-28T05:54:42.163Z,5.85
2022-07-28T05:57:08.769Z,3.33
2022-07-28T05:59:42.098Z,3.92
2022-07-28T06:02:10.533Z,2.28
2022-07-28T06:04:39.674Z,4.32
2022-07-28T06:07:06.186Z,3.35
2022-07-28T06:09:32.723Z,2.42
2022-07-28T06:11:59.308Z,2.03
2022-07-28T06:14:25.856Z,2.20
2022-07-28T06:16:55.556Z,4.22
2022-07-28T06:19:22.080Z,3.30
2022-07-28T06:21:49.066Z,3.35
2022-07-28T06:24:15.963Z,2.70
2022-07-28T06:26:44.967Z,3.08
2022-07-28T06:29:11.695Z,8.90
2022-07-28T06:31:39.154Z,4.43
2022-07-28T06:34:05.918Z,3.00
2022-07-28T06:36:32.511Z,2.53
2022-07-28T06:38:59.100Z,2.67
2022-07-28T06:41:25.633Z,3.40
2022-07-28T06:43:52.502Z,3.70
2022-07-28T06:46:19.810Z,2.15
2022-07-28T06:48:46.778Z,4.22
2022-07-28T06:51:15.152Z,4.18
2022-07-28T06:53:41.699Z,1.58
2022-07-28T06:56:13.733Z,2.33
2022-07-28T06:58:42.223Z,2.00
2022-07-28T07:01:14.931Z,2.17
2022-07-28T07:03:42.534Z,3.42
2022-07-28T07:06:11.194Z,5.20
2022-07-28T07:08:37.967Z,5.05
2022-07-28T07:11:04.691Z,3.67
2022-07-28T07:13:31.286Z,1.77
2022-07-28T07:15:57.841Z,3.47
2022-07-28T07:18:24.378Z,1.88
2022-07-28T07:20:51.058Z,2.90
2022-07-28T07:23:17.667Z,1.48
2022-07-28T07:25:44.265Z,2.13
2022-07-28T07:28:10.791Z,1.25
2022-07-28T07:30:37.281Z,1.60
2022-07-28T07:33:03.816Z,3.63
2022-07-28T07:35:35.198Z,1.20
2022-07-28T07:38:01.724Z,1.52
2022-07-28T07:40:28.241Z,2.22
2022-07-28T07:42:54.729Z,1.75
2022-07-28T07:45:21.275Z,1.30
2022-07-28T07:47:47.857Z,1.60
2022-07-28T07:50:14.412Z,1.88
2022-07-28T07:52:40.972Z,1.88
2022-07-28T07:55:07.757Z,1.83
2022-07-28T07:57:34.299Z,1.55
2022-07-28T08:00:00.819Z,2.35
2022-07-28T08:02:27.655Z,2.03
2022-07-28T08:04:55.549Z,2.65
2022-07-28T08:07:22.350Z,2.30
2022-07-28T08:09:49.030Z,3.03
2022-07-28T08:12:15.513Z,2.55
2022-07-28T08:14:42.212Z,3.58
2022-07-28T08:17:14.358Z,3.28
2022-07-28T08:19:40.900Z,2.80
2022-07-28T08:22:07.438Z,3.42
2022-07-28T08:24:34.511Z,1.77
2022-07-28T08:27:04.365Z,1.45
2022-07-28T08:29:30.875Z,3.28
2022-07-28T08:31:57.482Z,4.65
2022-07-28T08:34:31.117Z,1.55
2022-07-28T08:37:00.202Z,3.47
2022-07-28T08:39:26.711Z,1.40
2022-07-28T08:42:02.705Z,2.03
2022-07-28T08:44:33.510Z,2.42
2022-07-28T08:47:00.209Z,2.45
2022-07-28T08:49:27.461Z,0.75
2022-07-28T08:51:55.069Z,2.13
2022-07-28T08:54:25.944Z,1.75
2022-07-28T08:56:52.498Z,3.20
2022-07-28T08:59:19.056Z,2.95
2022-07-28T09:01:45.963Z,1.55
2022-07-28T09:04:12.816Z,1.50
2022-07-28T09:06:42.859Z,1.98
2022-07-28T09:09:09.957Z,2.03
2022-07-28T09:11:39.800Z,1.88
2022-07-28T09:14:06.532Z,2.78
2022-07-28T09:16:33.319Z,4.38
2022-07-28T09:18:59.856Z,2.95
2022-07-28T09:21:26.503Z,2.20
2022-07-28T09:23:53.427Z,2.25
2022-07-28T09:26:19.934Z,1.33
2022-07-28T09:28:57.714Z,2.28
2022-07-28T09:31:25.011Z,2.92
2022-07-28T09:33:54.595Z,3.53
2022-07-28T09:36:21.203Z,1.88
2022-07-28T09:38:47.783Z,1.98
2022-07-28T09:41:18.650Z,1.88
2022-07-28T09:43:47.024Z,2.33
2022-07-28T09:46:17.942Z,1.58
2022-07-28T09:48:51.354Z,3.60
2022-07-28T09:51:19.489Z,4.13
2022-07-28T09:53:46.235Z,4.78
2022-07-28T09:56:13.204Z,2.50
2022-07-28T09:58:40.664Z,2.17
2022-07-28T10:01:09.030Z,2.03
2022-07-28T10:03:36.968Z,2.15
2022-07-28T10:06:11.642Z,1.45
2022-07-28T10:08:42.040Z,1.30
2022-07-28T10:11:09.067Z,2.13
2022-07-28T10:13:35.696Z,1.40
2022-07-28T10:16:11.631Z,7.03
2022-07-28T10:18:39.517Z,2.63
2022-07-28T10:21:13.330Z,2.30
2022-07-28T10:23:40.276Z,1.98
2022-07-28T10:26:12.923Z,2.25
2022-07-28T10:28:42.536Z,3.47
2022-07-28T10:31:10.045Z,1.35
2022-07-28T10:33:39.763Z,1.98
2022-07-28T10:36:07.000Z,2.05
2022-07-28T10:38:37.183Z,3.15
2022-07-28T10:41:06.758Z,2.05
2022-07-28T10:43:33.477Z,2.05
2022-07-28T10:46:06.053Z,2.50
2022-07-28T10:51:00.898Z,2.33
2022-07-28T10:53:37.217Z,2.95
2022-07-28T10:56:09.884Z,5.97
2022-07-28T10:58:55.328Z,1.60
2022-07-28T11:01:50.039Z,3.15
2022-07-28T11:04:35.555Z,2.97
2022-07-28T11:07:11.857Z,4.25
2022-07-28T11:09:38.475Z,3.88
2022-07-28T11:12:05.244Z,3.25
2022-07-28T11:14:37.187Z,3.88
2022-07-28T11:17:04.675Z,2.33
2022-07-28T11:20:16.127Z,2.85
2022-07-28T11:22:38.025Z,3.38
2022-07-28T11:25:18.475Z,2.00
2022-07-28T11:27:49.886Z,2.13
2022-07-28T11:30:16.483Z,1.73
2022-07-28T11:32:55.104Z,3.97
2022-07-28T11:35:25.141Z,4.85
2022-07-28T11:38:01.101Z,3.05
2022-07-28T11:40:33.625Z,3.30
2022-07-28T11:43:22.330Z,2.70
2022-07-28T11:45:55.734Z,2.65
2022-07-28T11:48:23.559Z,4.07
2022-07-28T11:51:05.580Z,4.30
2022-07-28T11:53:39.443Z,2.60
2022-07-28T11:56:07.067Z,4.57
2022-07-28T11:58:33.583Z,3.90
2022-07-28T12:01:19.873Z,2.58
2022-07-28T12:03:55.727Z,2.42
2022-07-28T12:06:29.562Z,3.80
2022-07-28T12:09:02.661Z,3.67
2022-07-28T12:11:35.850Z,3.42
2022-07-28T12:14:04.022Z,5.50
2022-07-28T12:16:31.592Z,1.48
2022-07-28T12:19:00.700Z,3.97
2022-07-28T12:21:37.388Z,2.40
2022-07-28T12:24:14.294Z,3.30
2022-07-28T12:26:42.072Z,4.57
2022-07-28T12:29:13.042Z,2.15
2022-07-28T12:31:41.820Z,4.07
2022-07-28T12:34:12.056Z,2.95
2022-07-28T12:36:39.159Z,3.15
2022-07-28T12:39:10.834Z,7.53
2022-07-28T12:41:39.505Z,1.55
2022-07-28T12:44:06.201Z,3.67
2022-07-28T12:46:33.030Z,3.88
2022-07-28T12:49:00.506Z,2.05
2022-07-28T12:51:31.079Z,2.15
2022-07-28T12:53:57.694Z,2.92
2022-07-28T12:56:24.204Z,4.32
2022-07-28T12:59:03.375Z,2.58
2022-07-28T13:01:48.528Z,5.60
2022-07-28T13:04:16.844Z,4.95
2022-07-28T13:06:54.167Z,2.25
2022-07-28T13:09:24.117Z,3.65
2022-07-28T13:11:59.653Z,5.35
2022-07-28T13:14:38.872Z,5.78
2022-07-28T13:17:05.544Z,4.43
2022-07-28T13:19:32.630Z,6.43
2022-07-28T13:22:04.064Z,4.45
2022-07-28T13:24:33.579Z,4.15
2022-07-28T13:27:01.820Z,4.65
2022-07-28T13:29:28.343Z,4.38
2022-07-28T13:31:55.347Z,2.85
2022-07-28T13:34:22.018Z,4.15
2022-07-28T13:36:48.551Z,4.45
2022-07-28T13:39:15.042Z,2.97
2022-07-28T13:41:57.387Z,4.93
2022-07-28T13:44:28.344Z,4.85
2022-07-28T13:46:55.754Z,4.15
2022-07-28T13:49:23.619Z,4.07
2022-07-28T13:51:51.180Z,4.20
2022-07-28T13:54:18.696Z,4.90
2022-07-28T13:56:45.672Z,7.15
2022-07-28T13:59:13.750Z,4.28
2022-07-28T14:01:42.347Z,4.05
2022-07-28T14:04:14.989Z,6.65
2022-07-28T14:06:45.119Z,5.35
2022-07-28T14:09:12.105Z,3.33
2022-07-28T14:11:41.393Z,6.25
2022-07-28T14:14:20.144Z,4.82
2022-07-28T14:16:48.066Z,8.82
2022-07-28T14:19:16.631Z,7.45
2022-07-28T14:24:50.803Z,6.40
2022-07-28T14:27:17.380Z,6.07
2022-07-28T14:29:43.949Z,6.95
2022-07-28T14:32:10.602Z,3.80
2022-07-28T14:34:37.142Z,10.90
2022-07-28T14:37:08.993Z,5.00
2022-07-28T14:39:36.509Z,3.60
2022-07-28T14:42:03.480Z,5.03
2022-07-28T14:44:30.448Z,7.53
2022-07-28T14:46:57.121Z,5.47
2022-07-28T14:49:23.800Z,4.15
2022-07-28T14:51:51.146Z,4.03
2022-07-28T14:54:17.956Z,7.78
2022-07-28T14:56:44.897Z,8.95
2022-07-28T14:59:11.467Z,5.93
2022-07-28T15:01:38.183Z,5.85
2022-07-28T15:04:05.131Z,3.97
2022-07-28T15:06:31.606Z,6.47
2022-07-28T15:08:58.584Z,5.93
2022-07-28T15:11:25.936Z,4.93
2022-07-28T15:13:52.436Z,5.57
2022-07-28T15:16:19.111Z,5.03
2022-07-28T15:18:45.643Z,5.13
2022-07-28T15:21:16.040Z,8.00
2022-07-28T15:23:42.728Z,9.18
2022-07-28T15:26:09.799Z,6.50
2022-07-28T15:28:36.441Z,5.88
2022-07-28T15:31:03.558Z,6.53
2022-07-28T15:33:32.009Z,5.50
2022-07-28T15:36:01.670Z,5.00
2022-07-28T15:38:29.219Z,6.65
2022-07-28T15:40:58.720Z,6.25
2022-07-28T15:43:25.302Z,6.90
2022-07-28T15:45:54.276Z,5.05
2022-07-28T15:48:22.037Z,3.95
2022-07-28T15:50:48.875Z,4.13
2022-07-28T15:53:18.526Z,5.85
2022-07-28T15:55:50.512Z,5.53
2022-07-28T15:58:17.880Z,10.90
2022-07-28T16:00:45.059Z,8.77
2022-07-28T16:03:11.845Z,5.50
2022-07-28T16:05:38.435Z,5.40
2022-07-28T16:08:05.121Z,5.10
2022-07-28T16:10:31.652Z,6.97
2022-07-28T16:12:58.144Z,9.05
2022-07-28T16:15:27.363Z,7.18
2022-07-28T16:17:54.135Z,6.85
2022-07-28T16:20:20.700Z,8.10
2022-07-28T16:22:47.204Z,5.40
2022-07-28T16:25:17.138Z,8.77
2022-07-28T16:27:44.665Z,7.90
2022-07-28T16:30:11.864Z,7.90
2022-07-28T16:32:39.223Z,6.88
2022-07-28T16:35:06.874Z,8.00
2022-07-28T16:37:34.131Z,6.57
2022-07-28T16:40:00.635Z,5.57
2022-07-28T16:42:27.199Z,10.20
2022-07-28T16:44:53.706Z,6.70
2022-07-28T16:47:20.392Z,7.22
2022-07-28T16:49:47.172Z,10.63
2022-07-28T16:52:14.209Z,5.97
2022-07-28T16:54:40.830Z,9.57
2022-07-28T16:57:07.404Z,10.50
2022-07-28T16:59:45.858Z,6.05
2022-07-28T17:02:14.563Z,7.28
2022-07-28T17:04:41.164Z,8.18
2022-07-28T17:07:08.389Z,7.55
2022-07-28T17:09:34.885Z,12.00
2022-07-28T17:12:01.583Z,8.48
2022-07-28T17:14:28.107Z,6.95
2022-07-28T17:16:54.624Z,9.20
2022-07-28T17:19:22.234Z,7.18
2022-07-28T17:21:48.865Z,5.70
2022-07-28T17:24:15.955Z,11.85
2022-07-28T17:27:35.159Z,7.13
2022-07-28T17:29:29.697Z,6.68
2022-07-28T17:31:56.245Z,6.70
2022-07-28T17:34:22.847Z,7.05
2022-07-28T17:36:50.518Z,6.40
2022-07-28T17:39:17.078Z,6.50
2022-07-28T17:41:43.627Z,15.02
2022-07-28T17:44:10.148Z,7.82
2022-07-28T17:46:36.753Z,3.58
2022-07-28T17:49:05.216Z,8.90
2022-07-28T17:51:31.810Z,8.30
2022-07-28T19:23:00.741Z,9.15
2022-07-28T19:25:30.486Z,9.48
2022-07-28T19:27:57.883Z,11.60
2022-07-28T19:30:24.416Z,8.23
2022-07-28T19:32:50.917Z,12.77
2022-07-28T19:35:17.511Z,7.65
2022-07-28T19:37:44.222Z,8.75
2022-07-28T19:40:12.000Z,9.77
2022-07-28T19:42:38.601Z,11.02
2022-07-28T19:45:05.795Z,11.77
2022-07-28T19:47:32.435Z,9.55
2022-07-28T19:50:05.177Z,10.32
2022-07-28T19:52:31.873Z,9.90
2022-07-28T19:54:58.473Z,8.10
2022-07-28T19:57:25.465Z,8.02
2022-07-28T19:59:51.984Z,8.52
2022-07-28T20:02:18.704Z,8.75
2022-07-28T20:04:45.245Z,11.90
2022-07-28T20:07:11.791Z,8.85
2022-07-28T20:09:38.648Z,10.48
2022-07-28T20:12:05.389Z,10.20
2022-07-28T20:14:35.095Z,13.90
2022-07-28T20:17:01.683Z,9.13
2022-07-28T20:19:28.752Z,12.60
2022-07-28T20:21:55.279Z,13.07
2022-07-28T20:24:22.471Z,10.80
2022-07-28T20:26:49.054Z,8.07
2022-07-28T20:29:15.781Z,10.38
2022-07-28T20:31:42.395Z,9.05
2022-07-28T20:34:12.645Z,10.57
2022-07-28T20:36:39.658Z,8.88
2022-07-28T20:39:21.440Z,9.27
2022-07-28T20:41:52.779Z,10.70
2022-07-28T20:44:28.715Z,9.70
2022-07-28T20:46:58.522Z,9.40
2022-07-28T20:49:25.190Z,9.55
2022-07-28T20:51:51.799Z,8.93
2022-07-28T20:54:18.938Z,11.07
2022-07-28T20:56:45.627Z,10.07
2022-07-28T20:59:12.137Z,9.63
2022-07-28T21:01:39.268Z,8.55
2022-07-28T21:04:05.968Z,9.30
2022-07-28T21:06:37.978Z,13.68
2022-07-28T21:09:05.272Z,11.43
2022-07-28T21:11:34.768Z,14.20
2022-07-28T21:14:01.852Z,12.32
2022-07-28T21:16:28.538Z,12.10
2022-07-28T21:18:55.260Z,10.43
2022-07-28T21:21:22.284Z,9.70
2022-07-28T21:23:49.566Z,12.60
2022-07-28T21:26:16.401Z,10.63
2022-07-28T21:29:01.663Z,10.63
2022-07-28T21:31:28.291Z,11.63
2022-07-28T21:33:54.853Z,12.52
2022-07-28T21:36:21.400Z,10.27
2022-07-28T21:38:47.916Z,12.20
2022-07-28T21:41:14.589Z,11.07
2022-07-28T21:43:41.068Z,9.65
2022-07-28T21:46:07.613Z,10.88
2022-07-28T21:48:34.181Z,9.55
2022-07-28T21:51:00.703Z,10.95
2022-07-28T21:53:27.229Z,9.45
2022-07-28T21:55:53.922Z,12.07
2022-07-28T21:58:21.128Z,10.88
2022-07-28T22:00:47.775Z,10.05
2022-07-28T22:03:14.450Z,10.85
2022-07-28T22:05:41.368Z,8.90
2022-07-28T22:08:09.408Z,8.80
2022-07-28T22:10:35.997Z,11.18
2022-07-28T22:13:02.543Z,11.80
2022-07-28T22:15:29.109Z,9.52
2022-07-28T22:17:55.680Z,10.55
2022-07-28T22:20:22.276Z,9.80
2022-07-28T22:22:48.799Z,9.07
2022-07-28T22:25:15.356Z,8.75
2022-07-28T22:27:41.925Z,9.32
2022-07-28T22:30:08.630Z,10.65
2022-07-28T22:32:35.190Z,12.63
2022-07-28T22:35:01.755Z,11.20
2022-07-28T22:37:28.333Z,10.60
2022-07-28T22:39:54.867Z,13.73
2022-07-28T22:42:21.470Z,11.50
2022-07-28T22:44:48.654Z,10.23
2022-07-28T22:47:15.230Z,12.50
2022-07-28T22:49:41.776Z,9.90
2022-07-28T22:52:08.306Z,10.57
2022-07-28T22:57:21.801Z,8.63
2022-07-28T22:59:51.284Z,11.85
2022-07-28T23:02:18.331Z,9.88
2022-07-28T23:04:51.193Z,9.77
2022-07-28T23:07:18.417Z,9.73
2022-07-28T23:09:45.031Z,10.75
2022-07-28T23:12:11.795Z,9.50
2022-07-28T23:14:38.418Z,10.93
2022-07-28T23:17:05.071Z,12.48
2022-07-28T23:19:31.677Z,10.95
2022-07-28T23:21:58.318Z,9.52
2022-07-28T23:24:24.864Z,10.35
2022-07-28T23:26:51.459Z,9.95
2022-07-28T23:29:18.047Z,12.32
2022-07-28T23:31:44.858Z,12.70
2022-07-28T23:34:11.500Z,16.00
2022-07-28T23:36:38.103Z,10.18
2022-07-28T23:39:04.763Z,12.75
2022-07-28T23:41:31.307Z,10.45
2022-07-28T23:43:57.886Z,10.98
2022-07-28T23:46:24.579Z,13.40
2022-07-28T23:48:51.357Z,11.65
2022-07-28T23:51:18.007Z,11.73
2022-07-28T23:53:44.581Z,11.73
2022-07-28T23:56:11.286Z,10.43
2022-07-28T23:58:37.910Z,10.50
